Monteros, Argentina
Current Conditions -  °F | °C
As of 4:00 AM on Saturday 25 Oct 2014 (Local Time) from SANT Reporting Station
Clear Clear  
Wind Chill: 73°   Ceiling: Unl
Heat Index: 73°   Visibility: 6mi
Dew Point: 57°   Wind: 2mph
Humidity: 57%   Direction: 230°SW
Pressure: 29.91"   Gusts: NA
Location:  27.17°S, 65.5°W
Report Text: SANT 250700Z 23002KT CAVOK 23/14 Q1013
Loading
Personal Weather Stations






























Interactive Weather Map
Tropical Storm Tracking
New forecast layout! Learn more

10-Day Weather Forecast

Advertisements
Track Severe Weather on mobile